sensor_id;sensor_type;location;lat;lon;timestamp;pressure;altitude;pressure_sealevel;temperature;humidity
63907;BME280;50075;49.484;11.238;2022-11-06T00:00:12;98306.75;;;15.34;100.00
63907;BME280;50075;49.484;11.238;2022-11-06T00:02:38;98301.22;;;15.86;100.00
63907;BME280;50075;49.484;11.238;2022-11-06T00:05:04;98297.94;;;15.03;100.00
63907;BME280;50075;49.484;11.238;2022-11-06T00:07:48;98300.97;;;15.75;100.00
63907;BME280;50075;49.484;11.238;2022-11-06T00:10:14;98306.50;;;14.22;100.00
63907;BME280;50075;49.484;11.238;2022-11-06T00:12:40;98303.19;;;14.87;100.00
63907;BME280;50075;49.484;11.238;2022-11-06T00:15:06;98300.47;;;14.20;100.00
63907;BME280;50075;49.484;11.238;2022-11-06T00:17:31;98301.81;;;14.96;100.00
63907;BME280;50075;49.484;11.238;2022-11-06T00:19:57;98307.25;;;15.56;100.00
63907;BME280;50075;49.484;11.238;2022-11-06T00:22:22;98306.91;;;14.48;100.00
63907;BME280;50075;49.484;11.238;2022-11-06T00:24:48;98310.00;;;14.74;100.00
63907;BME280;50075;49.484;11.238;2022-11-06T00:27:14;98303.47;;;14.65;100.00
63907;BME280;50075;49.484;11.238;2022-11-06T00:29:39;98300.50;;;13.30;100.00
63907;BME280;50075;49.484;11.238;2022-11-06T00:32:05;98299.13;;;13.59;100.00
63907;BME280;50075;49.484;11.238;2022-11-06T00:34:30;98299.94;;;13.96;100.00
63907;BME280;50075;49.484;11.238;2022-11-06T00:36:56;98305.88;;;14.86;100.00
63907;BME280;50075;49.484;11.238;2022-11-06T00:39:21;98303.16;;;13.66;100.00
63907;BME280;50075;49.484;11.238;2022-11-06T00:41:46;98301.94;;;14.26;100.00
63907;BME280;50075;49.484;11.238;2022-11-06T00:44:12;98294.47;;;14.36;100.00
63907;BME280;50075;49.484;11.238;2022-11-06T00:46:37;98297.47;;;14.11;100.00
63907;BME280;50075;49.484;11.238;2022-11-06T00:49:03;98300.25;;;14.25;100.00
63907;BME280;50075;49.484;11.238;2022-11-06T00:51:30;98302.56;;;13.96;100.00
63907;BME280;50075;49.484;11.238;2022-11-06T00:53:59;98297.56;;;13.00;100.00
63907;BME280;50075;49.484;11.238;2022-11-06T00:56:25;98301.44;;;13.48;100.00
63907;BME280;50075;49.484;11.238;2022-11-06T00:58:51;98308.72;;;12.84;100.00
63907;BME280;50075;49.484;11.238;2022-11-06T01:01:25;98303.47;;;12.65;100.00
63907;BME280;50075;49.484;11.238;2022-11-06T01:03:53;98297.91;;;12.52;100.00
63907;BME280;50075;49.484;11.238;2022-11-06T01:06:21;98301.03;;;13.38;100.00
63907;BME280;50075;49.484;11.238;2022-11-06T01:08:48;98302.72;;;13.20;100.00
63907;BME280;50075;49.484;11.238;2022-11-06T01:11:17;98309.66;;;14.46;100.00
63907;BME280;50075;49.484;11.238;2022-11-06T01:13:43;98313.25;;;13.00;100.00
63907;BME280;50075;49.484;11.238;2022-11-06T01:16:11;98313.75;;;12.49;100.00
63907;BME280;50075;49.484;11.238;2022-11-06T01:18:38;98316.50;;;12.86;100.00
63907;BME280;50075;49.484;11.238;2022-11-06T01:21:06;98322.38;;;12.91;100.00
63907;BME280;50075;49.484;11.238;2022-11-06T01:23:32;98317.25;;;12.69;100.00
63907;BME280;50075;49.484;11.238;2022-11-06T01:25:59;98316.06;;;12.76;100.00
63907;BME280;50075;49.484;11.238;2022-11-06T01:28:25;98314.84;;;13.42;100.00
63907;BME280;50075;49.484;11.238;2022-11-06T01:30:51;98310.88;;;12.56;100.00
63907;BME280;50075;49.484;11.238;2022-11-06T01:33:16;98312.25;;;12.83;100.00
63907;BME280;50075;49.484;11.238;2022-11-06T01:35:50;98307.31;;;12.96;100.00
63907;BME280;50075;49.484;11.238;2022-11-06T01:38:15;98304.03;;;13.10;100.00
63907;BME280;50075;49.484;11.238;2022-11-06T01:40:42;98308.44;;;13.09;100.00
63907;BME280;50075;49.484;11.238;2022-11-06T01:43:42;98303.47;;;13.78;100.00
63907;BME280;50075;49.484;11.238;2022-11-06T01:46:08;98306.25;;;13.75;100.00
63907;BME280;50075;49.484;11.238;2022-11-06T01:48:34;98314.28;;;12.58;100.00
63907;BME280;50075;49.484;11.238;2022-11-06T01:50:59;98308.63;;;12.67;100.00
63907;BME280;50075;49.484;11.238;2022-11-06T01:53:26;98305.59;;;12.76;100.00
63907;BME280;50075;49.484;11.238;2022-11-06T01:55:54;98306.84;;;12.67;100.00
63907;BME280;50075;49.484;11.238;2022-11-06T01:58:21;98297.50;;;12.62;100.00
63907;BME280;50075;49.484;11.238;2022-11-06T02:00:48;98306.03;;;12.46;100.00
63907;BME280;50075;49.484;11.238;2022-11-06T02:03:14;98295.84;;;12.80;100.00
63907;BME280;50075;49.484;11.238;2022-11-06T02:05:40;98307.72;;;13.06;100.00
63907;BME280;50075;49.484;11.238;2022-11-06T02:08:09;98292.16;;;13.03;100.00
63907;BME280;50075;49.484;11.238;2022-11-06T02:10:36;98288.91;;;12.98;100.00
63907;BME280;50075;49.484;11.238;2022-11-06T02:15:47;98285.66;;;12.92;100.00
63907;BME280;50075;49.484;11.238;2022-11-06T02:18:39;98289.19;;;13.10;100.00
63907;BME280;50075;49.484;11.238;2022-11-06T02:23:38;98284.59;;;13.35;100.00
63907;BME280;50075;49.484;11.238;2022-11-06T02:29:14;98293.13;;;13.57;100.00
63907;BME280;50075;49.484;11.238;2022-11-06T02:31:43;98284.59;;;12.38;100.00
63907;BME280;50075;49.484;11.238;2022-11-06T02:34:13;98283.53;;;12.82;100.00
63907;BME280;50075;49.484;11.238;2022-11-06T02:36:46;98281.66;;;13.77;100.00
63907;BME280;50075;49.484;11.238;2022-11-06T02:39:16;98287.44;;;12.52;100.00
63907;BME280;50075;49.484;11.238;2022-11-06T02:41:45;98286.00;;;13.04;100.00
63907;BME280;50075;49.484;11.238;2022-11-06T02:44:15;98276.56;;;12.62;100.00
63907;BME280;50075;49.484;11.238;2022-11-06T02:47:05;98283.13;;;12.51;100.00
63907;BME280;50075;49.484;11.238;2022-11-06T02:49:43;98282.97;;;12.15;100.00
63907;BME280;50075;49.484;11.238;2022-11-06T02:52:16;98278.44;;;12.98;100.00
63907;BME280;50075;49.484;11.238;2022-11-06T02:54:46;98277.59;;;12.78;100.00
63907;BME280;50075;49.484;11.238;2022-11-06T02:57:13;98276.75;;;12.78;100.00
63907;BME280;50075;49.484;11.238;2022-11-06T03:02:35;98271.06;;;13.44;100.00
63907;BME280;50075;49.484;11.238;2022-11-06T03:05:45;98278.44;;;13.36;100.00
63907;BME280;50075;49.484;11.238;2022-11-06T03:10:29;98277.47;;;12.61;100.00
63907;BME280;50075;49.484;11.238;2022-11-06T03:13:04;98271.84;;;13.08;100.00
63907;BME280;50075;49.484;11.238;2022-11-06T03:15:43;98276.47;;;12.24;100.00
63907;BME280;50075;49.484;11.238;2022-11-06T03:18:29;98275.81;;;13.36;100.00
63907;BME280;50075;49.484;11.238;2022-11-06T03:21:00;98267.81;;;12.63;100.00
63907;BME280;50075;49.484;11.238;2022-11-06T03:23:51;98271.75;;;12.52;100.00
63907;BME280;50075;49.484;11.238;2022-11-06T03:26:24;98255.59;;;13.74;100.00
63907;BME280;50075;49.484;11.238;2022-11-06T03:28:53;98250.00;;;13.09;100.00
63907;BME280;50075;49.484;11.238;2022-11-06T03:31:45;98250.91;;;13.81;100.00
63907;BME280;50075;49.484;11.238;2022-11-06T03:34:18;98243.72;;;13.30;100.00
63907;BME280;50075;49.484;11.238;2022-11-06T03:36:51;98233.47;;;13.62;100.00
63907;BME280;50075;49.484;11.238;2022-11-06T03:39:26;98232.72;;;12.67;100.00
63907;BME280;50075;49.484;11.238;2022-11-06T03:42:04;98245.16;;;13.19;100.00
63907;BME280;50075;49.484;11.238;2022-11-06T03:44:32;98244.75;;;13.09;100.00
63907;BME280;50075;49.484;11.238;2022-11-06T03:47:10;98240.66;;;12.65;100.00
63907;BME280;50075;49.484;11.238;2022-11-06T03:49:42;98235.75;;;12.77;100.00
63907;BME280;50075;49.484;11.238;2022-11-06T03:52:26;98239.88;;;13.57;100.00
63907;BME280;50075;49.484;11.238;2022-11-06T03:55:04;98231.34;;;14.21;100.00
63907;BME280;50075;49.484;11.238;2022-11-06T03:57:42;98227.44;;;13.43;100.00
63907;BME280;50075;49.484;11.238;2022-11-06T04:00:11;98231.47;;;13.67;100.00
63907;BME280;50075;49.484;11.238;2022-11-06T04:02:40;98229.38;;;14.42;100.00
63907;BME280;50075;49.484;11.238;2022-11-06T04:05:13;98221.53;;;14.25;100.00
63907;BME280;50075;49.484;11.238;2022-11-06T04:07:43;98220.22;;;13.83;100.00
63907;BME280;50075;49.484;11.238;2022-11-06T04:10:33;98222.97;;;12.89;100.00
63907;BME280;50075;49.484;11.238;2022-11-06T04:13:19;98213.25;;;12.91;100.00
63907;BME280;50075;49.484;11.238;2022-11-06T04:16:06;98210.94;;;12.47;100.00
63907;BME280;50075;49.484;11.238;2022-11-06T04:18:33;98204.16;;;13.18;100.00
63907;BME280;50075;49.484;11.238;2022-11-06T04:27:02;98220.31;;;13.08;100.00
63907;BME280;50075;49.484;11.238;2022-11-06T04:32:07;98224.25;;;13.00;100.00
63907;BME280;50075;49.484;11.238;2022-11-06T04:34:45;98226.03;;;12.22;100.00
63907;BME280;50075;49.484;11.238;2022-11-06T04:39:43;98217.81;;;12.69;100.00
63907;BME280;50075;49.484;11.238;2022-11-06T04:44:48;98213.91;;;12.97;100.00
63907;BME280;50075;49.484;11.238;2022-11-06T04:47:19;98212.47;;;12.89;100.00
63907;BME280;50075;49.484;11.238;2022-11-06T04:49:47;98214.59;;;12.43;100.00
63907;BME280;50075;49.484;11.238;2022-11-06T04:52:17;98211.63;;;12.32;100.00
63907;BME280;50075;49.484;11.238;2022-11-06T04:54:45;98202.59;;;12.39;100.00
63907;BME280;50075;49.484;11.238;2022-11-06T04:57:11;98202.13;;;12.29;100.00
63907;BME280;50075;49.484;11.238;2022-11-06T04:59:37;98210.50;;;12.38;100.00
63907;BME280;50075;49.484;11.238;2022-11-06T05:02:04;98207.88;;;13.67;100.00
63907;BME280;50075;49.484;11.238;2022-11-06T05:04:29;98199.53;;;13.23;100.00
63907;BME280;50075;49.484;11.238;2022-11-06T05:06:55;98199.34;;;12.91;100.00
63907;BME280;50075;49.484;11.238;2022-11-06T05:09:21;98195.94;;;12.70;100.00
63907;BME280;50075;49.484;11.238;2022-11-06T05:11:46;98187.94;;;12.73;100.00
63907;BME280;50075;49.484;11.238;2022-11-06T05:14:11;98187.59;;;13.17;100.00
63907;BME280;50075;49.484;11.238;2022-11-06T05:16:37;98184.75;;;12.47;100.00
63907;BME280;50075;49.484;11.238;2022-11-06T05:19:02;98182.34;;;12.24;100.00
63907;BME280;50075;49.484;11.238;2022-11-06T05:21:28;98191.72;;;12.48;100.00
63907;BME280;50075;49.484;11.238;2022-11-06T05:24:11;98198.38;;;12.16;100.00
63907;BME280;50075;49.484;11.238;2022-11-06T05:26:37;98194.50;;;12.06;100.00
63907;BME280;50075;49.484;11.238;2022-11-06T05:29:02;98182.66;;;11.97;100.00
63907;BME280;50075;49.484;11.238;2022-11-06T05:31:28;98174.13;;;13.25;100.00
63907;BME280;50075;49.484;11.238;2022-11-06T05:33:53;98174.09;;;11.93;100.00
63907;BME280;50075;49.484;11.238;2022-11-06T05:36:18;98169.97;;;13.21;100.00
63907;BME280;50075;49.484;11.238;2022-11-06T05:38:44;98178.69;;;12.28;100.00
63907;BME280;50075;49.484;11.238;2022-11-06T05:41:09;98175.63;;;13.30;100.00
63907;BME280;50075;49.484;11.238;2022-11-06T05:43:34;98166.88;;;12.38;100.00
63907;BME280;50075;49.484;11.238;2022-11-06T05:46:00;98158.50;;;12.11;100.00
63907;BME280;50075;49.484;11.238;2022-11-06T05:48:26;98163.66;;;11.93;100.00
63907;BME280;50075;49.484;11.238;2022-11-06T05:50:52;98157.03;;;12.62;100.00
63907;BME280;50075;49.484;11.238;2022-11-06T05:53:18;98158.88;;;12.79;100.00
63907;BME280;50075;49.484;11.238;2022-11-06T05:55:46;98157.25;;;12.20;100.00
63907;BME280;50075;49.484;11.238;2022-11-06T05:58:13;98155.50;;;12.58;100.00
63907;BME280;50075;49.484;11.238;2022-11-06T06:00:38;98157.53;;;12.13;100.00
63907;BME280;50075;49.484;11.238;2022-11-06T06:03:04;98160.56;;;11.84;100.00
63907;BME280;50075;49.484;11.238;2022-11-06T06:05:29;98155.28;;;12.99;100.00
63907;BME280;50075;49.484;11.238;2022-11-06T06:07:54;98158.06;;;11.81;100.00
63907;BME280;50075;49.484;11.238;2022-11-06T06:10:20;98155.50;;;12.39;100.00
63907;BME280;50075;49.484;11.238;2022-11-06T06:12:48;98162.13;;;11.67;100.00
63907;BME280;50075;49.484;11.238;2022-11-06T06:15:13;98161.97;;;11.29;100.00
63907;BME280;50075;49.484;11.238;2022-11-06T06:17:39;98153.75;;;11.18;100.00
63907;BME280;50075;49.484;11.238;2022-11-06T06:20:05;98156.84;;;11.06;100.00
63907;BME280;50075;49.484;11.238;2022-11-06T06:22:30;98155.75;;;10.89;100.00
63907;BME280;50075;49.484;11.238;2022-11-06T06:24:56;98142.94;;;8.88;100.00
63907;BME280;50075;49.484;11.238;2022-11-06T06:27:21;98145.09;;;10.02;100.00
63907;BME280;50075;49.484;11.238;2022-11-06T06:29:46;98156.41;;;10.50;100.00
63907;BME280;50075;49.484;11.238;2022-11-06T06:32:12;98164.31;;;11.56;100.00
63907;BME280;50075;49.484;11.238;2022-11-06T06:34:37;98176.78;;;11.92;100.00
63907;BME280;50075;49.484;11.238;2022-11-06T06:37:02;98169.38;;;11.61;100.00
63907;BME280;50075;49.484;11.238;2022-11-06T06:39:28;98175.09;;;11.28;100.00
63907;BME280;50075;49.484;11.238;2022-11-06T06:41:53;98174.75;;;11.35;100.00
63907;BME280;50075;49.484;11.238;2022-11-06T06:44:19;98177.56;;;10.88;100.00
63907;BME280;50075;49.484;11.238;2022-11-06T06:46:44;98181.09;;;11.93;100.00
63907;BME280;50075;49.484;11.238;2022-11-06T06:49:10;98189.56;;;12.19;100.00
63907;BME280;50075;49.484;11.238;2022-11-06T06:51:35;98190.00;;;12.85;100.00
63907;BME280;50075;49.484;11.238;2022-11-06T06:54:01;98200.22;;;12.14;100.00
63907;BME280;50075;49.484;11.238;2022-11-06T06:56:26;98200.81;;;12.21;100.00
63907;BME280;50075;49.484;11.238;2022-11-06T06:58:52;98198.91;;;12.24;100.00
63907;BME280;50075;49.484;11.238;2022-11-06T07:01:18;98205.13;;;11.60;100.00
63907;BME280;50075;49.484;11.238;2022-11-06T07:03:43;98212.84;;;12.04;100.00
63907;BME280;50075;49.484;11.238;2022-11-06T07:06:09;98219.75;;;12.05;100.00
63907;BME280;50075;49.484;11.238;2022-11-06T07:08:34;98241.06;;;12.17;100.00
63907;BME280;50075;49.484;11.238;2022-11-06T07:11:01;98240.19;;;10.41;100.00
63907;BME280;50075;49.484;11.238;2022-11-06T07:13:27;98245.13;;;11.61;100.00
63907;BME280;50075;49.484;11.238;2022-11-06T07:15:53;98241.03;;;11.33;100.00
63907;BME280;50075;49.484;11.238;2022-11-06T07:18:18;98250.03;;;11.68;100.00
63907;BME280;50075;49.484;11.238;2022-11-06T07:20:44;98235.25;;;11.89;100.00
63907;BME280;50075;49.484;11.238;2022-11-06T07:23:09;98224.88;;;12.67;100.00
63907;BME280;50075;49.484;11.238;2022-11-06T07:25:34;98219.00;;;13.00;100.00
63907;BME280;50075;49.484;11.238;2022-11-06T07:28:04;98211.28;;;12.97;100.00
63907;BME280;50075;49.484;11.238;2022-11-06T07:30:30;98213.28;;;12.53;100.00
63907;BME280;50075;49.484;11.238;2022-11-06T07:32:58;98210.88;;;12.09;100.00
63907;BME280;50075;49.484;11.238;2022-11-06T07:35:24;98201.59;;;12.80;100.00
63907;BME280;50075;49.484;11.238;2022-11-06T07:37:49;98202.41;;;12.99;100.00
63907;BME280;50075;49.484;11.238;2022-11-06T07:40:14;98193.97;;;12.75;100.00
63907;BME280;50075;49.484;11.238;2022-11-06T07:42:40;98201.84;;;11.75;100.00
63907;BME280;50075;49.484;11.238;2022-11-06T07:45:06;98201.38;;;12.84;100.00
63907;BME280;50075;49.484;11.238;2022-11-06T07:47:31;98203.63;;;12.35;100.00
63907;BME280;50075;49.484;11.238;2022-11-06T07:49:57;98202.38;;;11.84;100.00
63907;BME280;50075;49.484;11.238;2022-11-06T07:52:22;98197.66;;;12.52;100.00
63907;BME280;50075;49.484;11.238;2022-11-06T07:54:47;98194.44;;;13.91;100.00
63907;BME280;50075;49.484;11.238;2022-11-06T07:57:13;98193.44;;;13.41;100.00
63907;BME280;50075;49.484;11.238;2022-11-06T07:59:38;98180.19;;;13.79;100.00
63907;BME280;50075;49.484;11.238;2022-11-06T08:02:04;98192.75;;;13.55;100.00
63907;BME280;50075;49.484;11.238;2022-11-06T08:04:29;98198.50;;;12.33;100.00
63907;BME280;50075;49.484;11.238;2022-11-06T08:06:58;98194.81;;;14.34;100.00
63907;BME280;50075;49.484;11.238;2022-11-06T08:09:23;98190.13;;;13.01;100.00
63907;BME280;50075;49.484;11.238;2022-11-06T08:11:51;98181.19;;;13.59;100.00
63907;BME280;50075;49.484;11.238;2022-11-06T08:14:16;98172.22;;;13.98;100.00
63907;BME280;50075;49.484;11.238;2022-11-06T08:16:41;98178.59;;;12.86;100.00
63907;BME280;50075;49.484;11.238;2022-11-06T08:19:07;98184.25;;;14.36;100.00
63907;BME280;50075;49.484;11.238;2022-11-06T08:21:33;98176.75;;;15.09;100.00
63907;BME280;50075;49.484;11.238;2022-11-06T08:23:58;98172.47;;;13.41;100.00
63907;BME280;50075;49.484;11.238;2022-11-06T08:26:24;98158.88;;;14.19;100.00
63907;BME280;50075;49.484;11.238;2022-11-06T08:28:49;98161.63;;;13.66;100.00
63907;BME280;50075;49.484;11.238;2022-11-06T08:31:15;98158.63;;;14.89;100.00
63907;BME280;50075;49.484;11.238;2022-11-06T08:33:40;98150.34;;;14.64;100.00
63907;BME280;50075;49.484;11.238;2022-11-06T08:36:07;98144.41;;;14.61;100.00
63907;BME280;50075;49.484;11.238;2022-11-06T08:38:34;98125.38;;;14.24;100.00
63907;BME280;50075;49.484;11.238;2022-11-06T08:41:05;98122.16;;;13.52;100.00
63907;BME280;50075;49.484;11.238;2022-11-06T08:43:30;98127.81;;;14.76;100.00
63907;BME280;50075;49.484;11.238;2022-11-06T08:45:56;98123.56;;;15.06;100.00
63907;BME280;50075;49.484;11.238;2022-11-06T08:48:23;98124.16;;;15.25;100.00
63907;BME280;50075;49.484;11.238;2022-11-06T08:50:48;98133.72;;;14.96;100.00
63907;BME280;50075;49.484;11.238;2022-11-06T08:53:13;98124.53;;;16.08;100.00
63907;BME280;50075;49.484;11.238;2022-11-06T08:55:39;98122.06;;;15.46;100.00
63907;BME280;50075;49.484;11.238;2022-11-06T08:58:05;98118.69;;;16.17;100.00
63907;BME280;50075;49.484;11.238;2022-11-06T09:00:31;98116.91;;;15.14;100.00
63907;BME280;50075;49.484;11.238;2022-11-06T09:02:58;98121.72;;;15.67;100.00
63907;BME280;50075;49.484;11.238;2022-11-06T09:05:24;98115.66;;;15.36;100.00
63907;BME280;50075;49.484;11.238;2022-11-06T09:07:49;98110.91;;;16.16;100.00
63907;BME280;50075;49.484;11.238;2022-11-06T09:10:15;98114.25;;;15.00;100.00
63907;BME280;50075;49.484;11.238;2022-11-06T09:12:40;98110.72;;;14.85;100.00
63907;BME280;50075;49.484;11.238;2022-11-06T09:15:06;98107.22;;;15.90;100.00
63907;BME280;50075;49.484;11.238;2022-11-06T09:17:32;98103.44;;;15.20;100.00
63907;BME280;50075;49.484;11.238;2022-11-06T09:19:57;98104.13;;;15.97;100.00
63907;BME280;50075;49.484;11.238;2022-11-06T09:22:22;98099.19;;;15.48;100.00
63907;BME280;50075;49.484;11.238;2022-11-06T09:24:48;98090.34;;;14.41;100.00
63907;BME280;50075;49.484;11.238;2022-11-06T09:27:13;98079.50;;;15.70;100.00
63907;BME280;50075;49.484;11.238;2022-11-06T09:29:39;98081.13;;;15.28;100.00
63907;BME280;50075;49.484;11.238;2022-11-06T09:32:08;98070.84;;;15.53;100.00
63907;BME280;50075;49.484;11.238;2022-11-06T09:34:33;98068.19;;;15.68;100.00
63907;BME280;50075;49.484;11.238;2022-11-06T09:37:01;98074.63;;;15.78;100.00
63907;BME280;50075;49.484;11.238;2022-11-06T09:39:26;98063.81;;;15.68;100.00
63907;BME280;50075;49.484;11.238;2022-11-06T09:42:19;98066.72;;;16.21;100.00
63907;BME280;50075;49.484;11.238;2022-11-06T09:47:23;98052.41;;;16.80;100.00
63907;BME280;50075;49.484;11.238;2022-11-06T09:49:52;98045.53;;;16.64;100.00
63907;BME280;50075;49.484;11.238;2022-11-06T09:55:00;98030.25;;;16.84;100.00
63907;BME280;50075;49.484;11.238;2022-11-06T09:57:32;98028.84;;;16.78;100.00
63907;BME280;50075;49.484;11.238;2022-11-06T10:00:01;98032.59;;;17.01;100.00
63907;BME280;50075;49.484;11.238;2022-11-06T10:02:41;98034.56;;;16.85;100.00
63907;BME280;50075;49.484;11.238;2022-11-06T10:05:12;98038.56;;;15.21;100.00
63907;BME280;50075;49.484;11.238;2022-11-06T10:07:40;98037.03;;;16.73;100.00
63907;BME280;50075;49.484;11.238;2022-11-06T10:10:12;98027.50;;;16.58;100.00
63907;BME280;50075;49.484;11.238;2022-11-06T10:18:44;98016.75;;;16.61;100.00
63907;BME280;50075;49.484;11.238;2022-11-06T10:21:46;98002.44;;;16.52;100.00
63907;BME280;50075;49.484;11.238;2022-11-06T10:24:22;98008.88;;;17.01;100.00
63907;BME280;50075;49.484;11.238;2022-11-06T10:26:53;98001.56;;;16.52;100.00
63907;BME280;50075;49.484;11.238;2022-11-06T10:34:48;98005.81;;;18.34;100.00
63907;BME280;50075;49.484;11.238;2022-11-06T10:37:20;98004.19;;;16.52;100.00
63907;BME280;50075;49.484;11.238;2022-11-06T10:39:48;98013.22;;;17.79;100.00
63907;BME280;50075;49.484;11.238;2022-11-06T10:42:17;98004.78;;;17.74;100.00
63907;BME280;50075;49.484;11.238;2022-11-06T10:47:19;97991.25;;;18.28;100.00
63907;BME280;50075;49.484;11.238;2022-11-06T10:49:54;97985.47;;;16.84;100.00
63907;BME280;50075;49.484;11.238;2022-11-06T10:55:40;97982.22;;;17.70;100.00
63907;BME280;50075;49.484;11.238;2022-11-06T11:00:40;97969.09;;;18.07;100.00
63907;BME280;50075;49.484;11.238;2022-11-06T11:03:15;97969.19;;;18.29;99.96
63907;BME280;50075;49.484;11.238;2022-11-06T11:05:43;97963.34;;;16.99;99.99
63907;BME280;50075;49.484;11.238;2022-11-06T11:11:00;97949.34;;;17.37;100.00
63907;BME280;50075;49.484;11.238;2022-11-06T11:13:25;97950.28;;;16.85;97.76
63907;BME280;50075;49.484;11.238;2022-11-06T11:15:51;97957.75;;;17.55;100.00
63907;BME280;50075;49.484;11.238;2022-11-06T11:18:24;97950.38;;;16.43;99.62
63907;BME280;50075;49.484;11.238;2022-11-06T11:21:12;97940.69;;;16.44;100.00
63907;BME280;50075;49.484;11.238;2022-11-06T11:23:39;97929.84;;;15.09;100.00
63907;BME280;50075;49.484;11.238;2022-11-06T11:28:49;97922.91;;;16.20;100.00
63907;BME280;50075;49.484;11.238;2022-11-06T11:31:16;97927.84;;;16.52;100.00
63907;BME280;50075;49.484;11.238;2022-11-06T11:33:54;97922.88;;;15.08;100.00
63907;BME280;50075;49.484;11.238;2022-11-06T11:36:20;97922.69;;;15.40;100.00
63907;BME280;50075;49.484;11.238;2022-11-06T11:38:46;97922.38;;;14.57;100.00
63907;BME280;50075;49.484;11.238;2022-11-06T11:46:28;97919.88;;;15.43;100.00
63907;BME280;50075;49.484;11.238;2022-11-06T11:48:55;97923.34;;;16.80;100.00
63907;BME280;50075;49.484;11.238;2022-11-06T11:53:47;97907.84;;;15.53;100.00
63907;BME280;50075;49.484;11.238;2022-11-06T11:56:16;97909.72;;;17.00;100.00
63907;BME280;50075;49.484;11.238;2022-11-06T11:58:54;97901.09;;;17.61;100.00
63907;BME280;50075;49.484;11.238;2022-11-06T12:01:50;97905.53;;;17.60;100.00
63907;BME280;50075;49.484;11.238;2022-11-06T12:04:20;97898.84;;;16.92;98.23
63907;BME280;50075;49.484;11.238;2022-11-06T12:07:06;97895.16;;;16.29;100.00
63907;BME280;50075;49.484;11.238;2022-11-06T12:09:42;97887.97;;;16.58;98.60
63907;BME280;50075;49.484;11.238;2022-11-06T12:12:20;97896.22;;;16.39;97.54
63907;BME280;50075;49.484;11.238;2022-11-06T12:14:46;97886.91;;;17.87;100.00
63907;BME280;50075;49.484;11.238;2022-11-06T12:17:18;97885.97;;;16.74;97.10
63907;BME280;50075;49.484;11.238;2022-11-06T12:19:51;97877.75;;;15.86;99.21
63907;BME280;50075;49.484;11.238;2022-11-06T12:22:42;97874.22;;;16.93;96.06
63907;BME280;50075;49.484;11.238;2022-11-06T12:25:46;97870.44;;;16.04;96.34
63907;BME280;50075;49.484;11.238;2022-11-06T12:28:17;97864.22;;;16.32;100.00
63907;BME280;50075;49.484;11.238;2022-11-06T12:30:45;97853.63;;;16.98;96.36
63907;BME280;50075;49.484;11.238;2022-11-06T12:33:20;97847.59;;;16.70;96.41
63907;BME280;50075;49.484;11.238;2022-11-06T12:35:51;97853.72;;;17.35;93.40
63907;BME280;50075;49.484;11.238;2022-11-06T12:38:53;97846.34;;;16.76;92.04
63907;BME280;50075;49.484;11.238;2022-11-06T12:41:38;97851.22;;;17.08;93.07
63907;BME280;50075;49.484;11.238;2022-11-06T12:44:09;97836.19;;;17.34;93.05
63907;BME280;50075;49.484;11.238;2022-11-06T12:46:51;97839.94;;;17.06;90.36
63907;BME280;50075;49.484;11.238;2022-11-06T12:52:08;97834.00;;;17.28;97.04
63907;BME280;50075;49.484;11.238;2022-11-06T12:55:09;97823.16;;;16.55;100.00
63907;BME280;50075;49.484;11.238;2022-11-06T13:05:37;97800.44;;;16.93;93.82
63907;BME280;50075;49.484;11.238;2022-11-06T13:08:43;97808.16;;;18.29;88.73
63907;BME280;50075;49.484;11.238;2022-11-06T13:11:38;97803.19;;;17.65;92.17
63907;BME280;50075;49.484;11.238;2022-11-06T13:17:05;97791.72;;;17.17;93.71
63907;BME280;50075;49.484;11.238;2022-11-06T13:19:37;97781.88;;;17.68;96.73
63907;BME280;50075;49.484;11.238;2022-11-06T13:25:35;97784.19;;;16.48;97.86
63907;BME280;50075;49.484;11.238;2022-11-06T13:30:39;97783.09;;;17.14;98.36
63907;BME280;50075;49.484;11.238;2022-11-06T13:33:28;97771.31;;;17.44;93.56
63907;BME280;50075;49.484;11.238;2022-11-06T13:35:57;97767.31;;;16.76;96.83
63907;BME280;50075;49.484;11.238;2022-11-06T13:38:29;97773.66;;;16.73;95.05
63907;BME280;50075;49.484;11.238;2022-11-06T13:41:02;97761.25;;;16.24;94.58
63907;BME280;50075;49.484;11.238;2022-11-06T13:44:04;97744.16;;;16.94;98.19
63907;BME280;50075;49.484;11.238;2022-11-06T13:51:51;97747.75;;;16.93;91.98
63907;BME280;50075;49.484;11.238;2022-11-06T14:02:46;97712.91;;;15.59;94.05
63907;BME280;50075;49.484;11.238;2022-11-06T14:08:03;97700.78;;;15.84;95.95
63907;BME280;50075;49.484;11.238;2022-11-06T14:10:35;97689.34;;;15.18;98.96
63907;BME280;50075;49.484;11.238;2022-11-06T14:13:03;97669.56;;;15.12;100.00
63907;BME280;50075;49.484;11.238;2022-11-06T14:15:37;97665.69;;;15.18;100.00
63907;BME280;50075;49.484;11.238;2022-11-06T14:18:12;97653.44;;;15.84;100.00
63907;BME280;50075;49.484;11.238;2022-11-06T14:20:38;97651.97;;;14.58;100.00
63907;BME280;50075;49.484;11.238;2022-11-06T14:23:44;97660.28;;;14.79;100.00
63907;BME280;50075;49.484;11.238;2022-11-06T14:26:10;97657.03;;;15.03;100.00
63907;BME280;50075;49.484;11.238;2022-11-06T14:28:41;97649.81;;;14.07;100.00
63907;BME280;50075;49.484;11.238;2022-11-06T14:31:08;97655.56;;;14.29;100.00
63907;BME280;50075;49.484;11.238;2022-11-06T14:38:37;97660.34;;;14.92;100.00
63907;BME280;50075;49.484;11.238;2022-11-06T14:44:04;97658.56;;;14.93;100.00